Ellenville, New York
Current Conditions -  °F | °C
As of 4:54 PM on Saturday 20 Dec 2014 (Local Time) from KMGJ Reporting Station
Overcast Overcast  
Wind Chill: -4°   Ceiling: 2800
Heat Index: -1°   Visibility: 10mi
Dew Point: -7°   Wind: 6mph
Humidity: 66%   Direction: 10°N
Pressure: 30.26"   Gusts: NA
Location:  41.72°N, 74.4°W
Report Text: KMGJ 202154Z AUTO 01005KT 10SM OVC028 M01/M07 A3026 RMK AO2 SLP251 T10111067 TSNO
Loading
Personal Weather Stations






























Interactive Weather Map New forecast layout! Learn more

10-Day Weather Forecast

Advertisements
Track Severe Weather on mobile